Winton, Australia
Current Conditions -  °F | °C
As of 4:00 AM on Sunday 26 Oct 2014 (Local Time) from YLRE Reporting Station
Clear Clear  
Wind Chill: 70°   Ceiling: Unl
Heat Index: 70°   Visibility: 6mi
Dew Point: 41°   Wind: 5mph
Humidity: 35%   Direction: 40°NE
Pressure: 29.94"   Gusts: NA
Location:  22.38°S, 143.03°E
Report Text: YLRE 251800Z AUTO 04004KT 9999 // NCD 21/05 Q1014
Loading
Personal Weather Stations






























Interactive Weather Map
Tropical Storm Tracking
New forecast layout! Learn more

10-Day Weather Forecast

Advertisements
Track Severe Weather on mobile